This is the latest recevied weather packets stored in our database for station/object KX4O-13. If no packets are shown the sender has not sent any weather packets the latest 10 day(s).
| Time | Temp. | Humidity | Pressure | Rain* | Wind** | Luminosity | Snow |
|---|---|---|---|---|---|---|---|
| 1777636560 | 7.78° C | 75% | 1015.9 hPa | 0 mm | - | 149 W/m² | - |
| 1777636260 | 7.78° C | 78% | 1015.8 hPa | 0 mm | - | 77 W/m² | - |
| 1777635960 | 7.22° C | 79% | 1015.8 hPa | 0 mm | - | 69 W/m² | - |
| 1777635660 | 7.22° C | 80% | 1015.8 hPa | 0 mm | - | 98 W/m² | - |
| 1777635360 | 7.22° C | 83% | 1015.8 hPa | 0 mm | - | 49 W/m² | - |
| 1777635060 | 6.67° C | 85% | 1015.8 hPa | 0 mm | - | 49 W/m² | - |
| 1777634760 | 6.11° C | 85% | 1015.7 hPa | 0 mm | - | 42 W/m² | - |
| 1777634460 | 5.56° C | 87% | 1015.6 hPa | 0 mm | - | 39 W/m² | - |
| 1777634160 | 5° C | 88% | 1015.6 hPa | 0 mm | - | 35 W/m² | - |
| 1777633860 | 4.44° C | 88% | 1015.6 hPa | 0 mm | - | 32 W/m² | - |
| 1777633560 | 4.44° C | 89% | 1015.5 hPa | 0 mm | - | 30 W/m² | - |
| 1777633260 | 3.89° C | 89% | 1015.5 hPa | 0 mm | - | 28 W/m² | - |
| 1777632960 | 3.89° C | 88% | 1015.3 hPa | 0 mm | - | 26 W/m² | - |
| 1777632660 | 3.89° C | 88% | 1015.3 hPa | 0 mm | - | 25 W/m² | - |
| 1777632360 | 3.89° C | 87% | 1015.1 hPa | 0 mm | - | 21 W/m² | - |
| 1777632060 | 3.89° C | 87% | 1015 hPa | 0 mm | - | 23 W/m² | - |
| 1777631760 | 3.89° C | 87% | 1014.9 hPa | 0 mm | - | 21 W/m² | - |
| 1777631460 | 3.89° C | 87% | 1014.9 hPa | 0 mm | - | 19 W/m² | - |
| 1777631160 | 3.89° C | 87% | 1015.1 hPa | 0 mm | - | 11 W/m² | - |
| 1777630860 | 3.89° C | 86% | 1015.1 hPa | 0 mm | - | 7 W/m² | - |
| 1777630560 | 3.89° C | 85% | 1015.1 hPa | 0 mm | - | 0 W/m² | - |
| 1777630260 | 3.89° C | 84% | 1015 hPa | 0 mm | - | 0 W/m² | - |
| 1777629960 | 4.44° C | 83% | 1015 hPa | 0 mm | - | 0 W/m² | - |
| 1777629660 | 4.44° C | 83% | 1015.1 hPa | 0 mm | - | 0 W/m² | - |
| 1777629360 | 5° C | 80% | 1015.1 hPa | 0 mm | - | 0 W/m² | - |
* Rain latest hour (hover to see other rain measurements)
** Current wind speed in m/s (hover to see current wind gust speed)